sensor_id;sensor_type;location;lat;lon;timestamp;temperature;humidity
23089;DHT22;11713;48.506;8.966;2023-08-24T00:00:53;21.00;99.90
23089;DHT22;11713;48.506;8.966;2023-08-24T00:03:19;20.90;99.90
23089;DHT22;11713;48.506;8.966;2023-08-24T00:05:47;20.90;99.90
23089;DHT22;11713;48.506;8.966;2023-08-24T00:08:13;20.80;99.90
23089;DHT22;11713;48.506;8.966;2023-08-24T00:10:39;20.80;99.90
23089;DHT22;11713;48.506;8.966;2023-08-24T00:13:09;20.70;99.90
23089;DHT22;11713;48.506;8.966;2023-08-24T00:15:35;20.70;99.90
23089;DHT22;11713;48.506;8.966;2023-08-24T00:18:02;20.60;99.90
23089;DHT22;11713;48.506;8.966;2023-08-24T00:20:28;20.60;99.90
23089;DHT22;11713;48.506;8.966;2023-08-24T00:22:54;20.60;99.90
23089;DHT22;11713;48.506;8.966;2023-08-24T00:25:20;20.40;99.90
23089;DHT22;11713;48.506;8.966;2023-08-24T00:27:45;20.40;99.90
23089;DHT22;11713;48.506;8.966;2023-08-24T00:30:12;20.40;99.90
23089;DHT22;11713;48.506;8.966;2023-08-24T00:32:37;20.30;99.90
23089;DHT22;11713;48.506;8.966;2023-08-24T00:35:05;20.30;99.90
23089;DHT22;11713;48.506;8.966;2023-08-24T00:37:34;20.20;99.90
23089;DHT22;11713;48.506;8.966;2023-08-24T00:40:00;20.20;99.90
23089;DHT22;11713;48.506;8.966;2023-08-24T00:42:32;20.30;99.90
23089;DHT22;11713;48.506;8.966;2023-08-24T00:44:58;20.30;99.90
23089;DHT22;11713;48.506;8.966;2023-08-24T00:47:25;20.30;99.90
23089;DHT22;11713;48.506;8.966;2023-08-24T00:49:51;20.30;99.90
23089;DHT22;11713;48.506;8.966;2023-08-24T00:52:18;20.30;99.90
23089;DHT22;11713;48.506;8.966;2023-08-24T00:54:45;20.20;99.90
23089;DHT22;11713;48.506;8.966;2023-08-24T00:57:11;20.20;99.90
23089;DHT22;11713;48.506;8.966;2023-08-24T00:59:37;20.20;99.90
23089;DHT22;11713;48.506;8.966;2023-08-24T01:02:04;20.20;99.90
23089;DHT22;11713;48.506;8.966;2023-08-24T01:04:30;20.10;99.90
23089;DHT22;11713;48.506;8.966;2023-08-24T01:06:55;20.00;99.90
23089;DHT22;11713;48.506;8.966;2023-08-24T01:09:21;20.00;99.90
23089;DHT22;11713;48.506;8.966;2023-08-24T01:17:22;20.00;99.90
23089;DHT22;11713;48.506;8.966;2023-08-24T01:19:49;20.00;99.90
23089;DHT22;11713;48.506;8.966;2023-08-24T01:22:37;19.90;99.90
23089;DHT22;11713;48.506;8.966;2023-08-24T01:25:20;20.00;99.90
23089;DHT22;11713;48.506;8.966;2023-08-24T01:27:50;20.00;99.90
23089;DHT22;11713;48.506;8.966;2023-08-24T01:30:18;19.90;99.90
23089;DHT22;11713;48.506;8.966;2023-08-24T01:32:44;19.90;99.90
23089;DHT22;11713;48.506;8.966;2023-08-24T01:35:10;19.90;99.90
23089;DHT22;11713;48.506;8.966;2023-08-24T01:37:36;19.90;99.90
23089;DHT22;11713;48.506;8.966;2023-08-24T01:40:13;19.90;99.90
23089;DHT22;11713;48.506;8.966;2023-08-24T01:42:59;19.80;99.90
23089;DHT22;11713;48.506;8.966;2023-08-24T01:45:28;19.70;99.90
23089;DHT22;11713;48.506;8.966;2023-08-24T01:47:56;19.70;99.90
23089;DHT22;11713;48.506;8.966;2023-08-24T01:50:23;19.60;99.90
23089;DHT22;11713;48.506;8.966;2023-08-24T01:52:49;19.60;99.90
23089;DHT22;11713;48.506;8.966;2023-08-24T01:55:19;19.50;99.90
23089;DHT22;11713;48.506;8.966;2023-08-24T01:57:46;19.50;99.90
23089;DHT22;11713;48.506;8.966;2023-08-24T02:00:12;19.50;99.90
23089;DHT22;11713;48.506;8.966;2023-08-24T02:02:43;19.50;99.90
23089;DHT22;11713;48.506;8.966;2023-08-24T02:05:10;19.50;99.90
23089;DHT22;11713;48.506;8.966;2023-08-24T02:07:35;19.40;99.90
23089;DHT22;11713;48.506;8.966;2023-08-24T02:10:03;19.30;99.90
23089;DHT22;11713;48.506;8.966;2023-08-24T02:12:29;19.30;99.90
23089;DHT22;11713;48.506;8.966;2023-08-24T02:14:54;19.20;99.90
23089;DHT22;11713;48.506;8.966;2023-08-24T02:17:20;19.20;99.90
23089;DHT22;11713;48.506;8.966;2023-08-24T02:19:46;19.20;99.90
23089;DHT22;11713;48.506;8.966;2023-08-24T02:22:12;19.20;99.90
23089;DHT22;11713;48.506;8.966;2023-08-24T02:24:38;19.20;99.90
23089;DHT22;11713;48.506;8.966;2023-08-24T02:27:04;19.30;99.90
23089;DHT22;11713;48.506;8.966;2023-08-24T02:29:30;19.30;99.90
23089;DHT22;11713;48.506;8.966;2023-08-24T02:31:56;19.30;99.90
23089;DHT22;11713;48.506;8.966;2023-08-24T02:34:22;19.20;99.90
23089;DHT22;11713;48.506;8.966;2023-08-24T02:36:48;19.20;99.90
23089;DHT22;11713;48.506;8.966;2023-08-24T02:39:14;19.20;99.90
23089;DHT22;11713;48.506;8.966;2023-08-24T02:41:40;19.10;99.90
23089;DHT22;11713;48.506;8.966;2023-08-24T02:44:06;19.00;99.90
23089;DHT22;11713;48.506;8.966;2023-08-24T02:46:32;19.00;99.90
23089;DHT22;11713;48.506;8.966;2023-08-24T02:48:58;18.90;99.90
23089;DHT22;11713;48.506;8.966;2023-08-24T02:51:24;19.00;99.90
23089;DHT22;11713;48.506;8.966;2023-08-24T02:53:50;19.10;99.90
23089;DHT22;11713;48.506;8.966;2023-08-24T02:56:16;19.20;99.90
23089;DHT22;11713;48.506;8.966;2023-08-24T02:58:42;19.30;99.90
23089;DHT22;11713;48.506;8.966;2023-08-24T03:01:08;19.30;99.90
23089;DHT22;11713;48.506;8.966;2023-08-24T03:03:34;19.30;99.90
23089;DHT22;11713;48.506;8.966;2023-08-24T03:06:06;19.30;99.90
23089;DHT22;11713;48.506;8.966;2023-08-24T03:08:32;19.30;99.90
23089;DHT22;11713;48.506;8.966;2023-08-24T03:10:59;19.20;99.90
23089;DHT22;11713;48.506;8.966;2023-08-24T03:13:26;19.20;99.90
23089;DHT22;11713;48.506;8.966;2023-08-24T03:15:54;19.30;99.90
23089;DHT22;11713;48.506;8.966;2023-08-24T03:18:20;19.20;99.90
23089;DHT22;11713;48.506;8.966;2023-08-24T03:20:47;19.20;99.90
23089;DHT22;11713;48.506;8.966;2023-08-24T03:23:15;19.20;99.90
23089;DHT22;11713;48.506;8.966;2023-08-24T03:25:42;19.20;99.90
23089;DHT22;11713;48.506;8.966;2023-08-24T03:28:08;19.20;99.90
23089;DHT22;11713;48.506;8.966;2023-08-24T03:30:44;19.10;99.90
23089;DHT22;11713;48.506;8.966;2023-08-24T03:33:11;19.20;99.90
23089;DHT22;11713;48.506;8.966;2023-08-24T03:35:37;19.10;99.90
23089;DHT22;11713;48.506;8.966;2023-08-24T03:38:03;19.20;99.90
23089;DHT22;11713;48.506;8.966;2023-08-24T03:40:29;19.20;99.90
23089;DHT22;11713;48.506;8.966;2023-08-24T03:42:56;19.20;99.90
23089;DHT22;11713;48.506;8.966;2023-08-24T03:45:22;19.20;99.90
23089;DHT22;11713;48.506;8.966;2023-08-24T03:47:48;19.30;99.90
23089;DHT22;11713;48.506;8.966;2023-08-24T03:50:15;19.30;99.90
23089;DHT22;11713;48.506;8.966;2023-08-24T03:52:41;19.30;99.90
23089;DHT22;11713;48.506;8.966;2023-08-24T03:55:08;19.30;99.90
23089;DHT22;11713;48.506;8.966;2023-08-24T03:57:34;19.40;99.90
23089;DHT22;11713;48.506;8.966;2023-08-24T04:00:01;19.40;99.90
23089;DHT22;11713;48.506;8.966;2023-08-24T04:02:43;19.40;99.90
23089;DHT22;11713;48.506;8.966;2023-08-24T04:05:13;19.50;99.90
23089;DHT22;11713;48.506;8.966;2023-08-24T04:07:39;19.50;99.90
23089;DHT22;11713;48.506;8.966;2023-08-24T04:10:07;19.40;99.90
23089;DHT22;11713;48.506;8.966;2023-08-24T04:12:33;19.40;99.90
23089;DHT22;11713;48.506;8.966;2023-08-24T04:15:00;19.30;99.90
23089;DHT22;11713;48.506;8.966;2023-08-24T04:17:26;19.30;99.90
23089;DHT22;11713;48.506;8.966;2023-08-24T04:19:52;19.30;99.90
23089;DHT22;11713;48.506;8.966;2023-08-24T04:22:19;19.40;99.90
23089;DHT22;11713;48.506;8.966;2023-08-24T04:24:45;19.40;99.90
23089;DHT22;11713;48.506;8.966;2023-08-24T04:27:10;19.40;99.90
23089;DHT22;11713;48.506;8.966;2023-08-24T04:29:37;19.20;99.90
23089;DHT22;11713;48.506;8.966;2023-08-24T04:32:03;19.10;99.90
23089;DHT22;11713;48.506;8.966;2023-08-24T04:34:29;19.10;99.90
23089;DHT22;11713;48.506;8.966;2023-08-24T04:36:54;19.20;99.90
23089;DHT22;11713;48.506;8.966;2023-08-24T04:39:21;19.20;99.90
23089;DHT22;11713;48.506;8.966;2023-08-24T04:41:46;19.10;99.90
23089;DHT22;11713;48.506;8.966;2023-08-24T04:44:12;19.10;99.90
23089;DHT22;11713;48.506;8.966;2023-08-24T04:46:38;19.10;99.90
23089;DHT22;11713;48.506;8.966;2023-08-24T04:49:04;19.10;99.90
23089;DHT22;11713;48.506;8.966;2023-08-24T04:51:30;19.10;99.90
23089;DHT22;11713;48.506;8.966;2023-08-24T04:53:56;19.00;99.90
23089;DHT22;11713;48.506;8.966;2023-08-24T04:56:22;18.90;99.90
23089;DHT22;11713;48.506;8.966;2023-08-24T04:58:55;19.00;99.90
23089;DHT22;11713;48.506;8.966;2023-08-24T05:01:23;19.00;99.90
23089;DHT22;11713;48.506;8.966;2023-08-24T05:03:48;19.00;99.90
23089;DHT22;11713;48.506;8.966;2023-08-24T05:06:14;19.10;99.90
23089;DHT22;11713;48.506;8.966;2023-08-24T05:08:40;19.10;99.90
23089;DHT22;11713;48.506;8.966;2023-08-24T05:11:19;19.20;99.90
23089;DHT22;11713;48.506;8.966;2023-08-24T05:13:46;19.20;99.90
23089;DHT22;11713;48.506;8.966;2023-08-24T05:16:12;19.20;99.90
23089;DHT22;11713;48.506;8.966;2023-08-24T05:18:38;19.20;99.90
23089;DHT22;11713;48.506;8.966;2023-08-24T05:21:05;19.20;99.90
23089;DHT22;11713;48.506;8.966;2023-08-24T05:23:32;19.20;99.90
23089;DHT22;11713;48.506;8.966;2023-08-24T05:25:59;19.20;99.90
23089;DHT22;11713;48.506;8.966;2023-08-24T05:28:26;19.20;99.90
23089;DHT22;11713;48.506;8.966;2023-08-24T05:30:53;19.30;99.90
23089;DHT22;11713;48.506;8.966;2023-08-24T05:33:20;19.40;99.90
23089;DHT22;11713;48.506;8.966;2023-08-24T05:35:46;19.40;99.90
23089;DHT22;11713;48.506;8.966;2023-08-24T05:38:13;19.50;99.90
23089;DHT22;11713;48.506;8.966;2023-08-24T05:40:39;19.60;99.90
23089;DHT22;11713;48.506;8.966;2023-08-24T05:43:06;19.70;99.90
23089;DHT22;11713;48.506;8.966;2023-08-24T05:45:32;19.80;99.90
23089;DHT22;11713;48.506;8.966;2023-08-24T05:47:58;19.80;99.90
23089;DHT22;11713;48.506;8.966;2023-08-24T05:50:24;19.90;99.90
23089;DHT22;11713;48.506;8.966;2023-08-24T05:52:50;19.90;99.90
23089;DHT22;11713;48.506;8.966;2023-08-24T05:55:16;20.00;99.90
23089;DHT22;11713;48.506;8.966;2023-08-24T05:57:42;20.10;99.90
23089;DHT22;11713;48.506;8.966;2023-08-24T06:00:08;20.10;99.90
23089;DHT22;11713;48.506;8.966;2023-08-24T06:02:39;20.20;99.90
23089;DHT22;11713;48.506;8.966;2023-08-24T06:05:06;20.20;99.90
23089;DHT22;11713;48.506;8.966;2023-08-24T06:07:32;20.20;99.90
23089;DHT22;11713;48.506;8.966;2023-08-24T06:09:58;20.20;99.90
23089;DHT22;11713;48.506;8.966;2023-08-24T06:12:24;20.20;99.90
23089;DHT22;11713;48.506;8.966;2023-08-24T06:14:50;20.20;99.90
23089;DHT22;11713;48.506;8.966;2023-08-24T06:17:16;20.20;99.90
23089;DHT22;11713;48.506;8.966;2023-08-24T06:19:42;20.20;99.90
23089;DHT22;11713;48.506;8.966;2023-08-24T06:22:08;20.20;99.90
23089;DHT22;11713;48.506;8.966;2023-08-24T06:24:34;20.20;99.90
23089;DHT22;11713;48.506;8.966;2023-08-24T06:27:00;20.20;99.90
23089;DHT22;11713;48.506;8.966;2023-08-24T06:29:28;20.30;99.90
23089;DHT22;11713;48.506;8.966;2023-08-24T06:31:54;20.40;99.90
23089;DHT22;11713;48.506;8.966;2023-08-24T06:34:21;20.40;99.90
23089;DHT22;11713;48.506;8.966;2023-08-24T06:36:47;20.50;99.90
23089;DHT22;11713;48.506;8.966;2023-08-24T06:39:13;20.50;99.90
23089;DHT22;11713;48.506;8.966;2023-08-24T06:41:39;20.60;99.90
23089;DHT22;11713;48.506;8.966;2023-08-24T06:44:07;20.60;99.90
23089;DHT22;11713;48.506;8.966;2023-08-24T06:46:33;20.70;99.90
23089;DHT22;11713;48.506;8.966;2023-08-24T06:48:59;20.70;99.90
23089;DHT22;11713;48.506;8.966;2023-08-24T06:51:25;20.70;99.90
23089;DHT22;11713;48.506;8.966;2023-08-24T06:53:51;20.70;99.90
23089;DHT22;11713;48.506;8.966;2023-08-24T06:56:17;20.70;99.90
23089;DHT22;11713;48.506;8.966;2023-08-24T06:58:48;20.80;99.90
23089;DHT22;11713;48.506;8.966;2023-08-24T07:01:14;20.80;99.90
23089;DHT22;11713;48.506;8.966;2023-08-24T07:03:40;20.80;99.90
23089;DHT22;11713;48.506;8.966;2023-08-24T07:06:06;20.80;99.90
23089;DHT22;11713;48.506;8.966;2023-08-24T07:08:38;20.80;99.90
23089;DHT22;11713;48.506;8.966;2023-08-24T07:11:04;20.90;99.90
23089;DHT22;11713;48.506;8.966;2023-08-24T07:13:30;21.00;99.90
23089;DHT22;11713;48.506;8.966;2023-08-24T07:15:55;21.10;99.90
23089;DHT22;11713;48.506;8.966;2023-08-24T07:18:22;21.20;99.90
23089;DHT22;11713;48.506;8.966;2023-08-24T07:20:48;21.40;99.90
23089;DHT22;11713;48.506;8.966;2023-08-24T07:23:14;21.50;99.90
23089;DHT22;11713;48.506;8.966;2023-08-24T07:25:40;21.50;99.90
23089;DHT22;11713;48.506;8.966;2023-08-24T07:28:06;21.60;99.90
23089;DHT22;11713;48.506;8.966;2023-08-24T07:30:35;21.70;99.90
23089;DHT22;11713;48.506;8.966;2023-08-24T07:33:01;21.70;99.90
23089;DHT22;11713;48.506;8.966;2023-08-24T07:35:28;21.80;99.90
23089;DHT22;11713;48.506;8.966;2023-08-24T07:37:54;21.80;99.90
23089;DHT22;11713;48.506;8.966;2023-08-24T07:40:20;21.80;99.90
23089;DHT22;11713;48.506;8.966;2023-08-24T07:42:47;21.80;99.90
23089;DHT22;11713;48.506;8.966;2023-08-24T07:45:14;21.80;99.90
23089;DHT22;11713;48.506;8.966;2023-08-24T07:47:40;21.90;99.90
23089;DHT22;11713;48.506;8.966;2023-08-24T07:50:08;21.90;99.90
23089;DHT22;11713;48.506;8.966;2023-08-24T07:52:34;21.90;99.90
23089;DHT22;11713;48.506;8.966;2023-08-24T07:55:00;22.00;99.90
23089;DHT22;11713;48.506;8.966;2023-08-24T07:57:29;22.20;99.90
23089;DHT22;11713;48.506;8.966;2023-08-24T07:59:55;22.40;99.90
23089;DHT22;11713;48.506;8.966;2023-08-24T08:02:21;22.50;99.90
23089;DHT22;11713;48.506;8.966;2023-08-24T08:04:46;22.70;99.90
23089;DHT22;11713;48.506;8.966;2023-08-24T08:07:12;22.90;99.90
23089;DHT22;11713;48.506;8.966;2023-08-24T08:09:38;23.10;99.90
23089;DHT22;11713;48.506;8.966;2023-08-24T08:12:04;23.20;99.90
23089;DHT22;11713;48.506;8.966;2023-08-24T08:14:30;23.40;99.90
23089;DHT22;11713;48.506;8.966;2023-08-24T08:16:56;23.60;99.90
23089;DHT22;11713;48.506;8.966;2023-08-24T08:19:22;23.70;99.90
23089;DHT22;11713;48.506;8.966;2023-08-24T08:21:50;23.90;99.90
23089;DHT22;11713;48.506;8.966;2023-08-24T08:24:16;24.10;99.90
23089;DHT22;11713;48.506;8.966;2023-08-24T08:26:42;24.20;99.90
23089;DHT22;11713;48.506;8.966;2023-08-24T08:29:08;24.40;99.90
23089;DHT22;11713;48.506;8.966;2023-08-24T08:31:34;24.40;99.90
23089;DHT22;11713;48.506;8.966;2023-08-24T08:34:01;24.50;99.90
23089;DHT22;11713;48.506;8.966;2023-08-24T08:36:30;24.60;99.90
23089;DHT22;11713;48.506;8.966;2023-08-24T08:38:58;24.80;99.90
23089;DHT22;11713;48.506;8.966;2023-08-24T08:41:28;24.90;99.90
23089;DHT22;11713;48.506;8.966;2023-08-24T08:43:56;24.90;99.90
23089;DHT22;11713;48.506;8.966;2023-08-24T08:46:22;24.80;99.90
23089;DHT22;11713;48.506;8.966;2023-08-24T08:48:49;24.60;99.90
23089;DHT22;11713;48.506;8.966;2023-08-24T08:51:16;24.80;99.90
23089;DHT22;11713;48.506;8.966;2023-08-24T08:53:43;25.00;99.90
23089;DHT22;11713;48.506;8.966;2023-08-24T08:56:09;25.10;99.90
23089;DHT22;11713;48.506;8.966;2023-08-24T08:58:36;25.40;99.90
23089;DHT22;11713;48.506;8.966;2023-08-24T09:01:03;25.70;99.90
23089;DHT22;11713;48.506;8.966;2023-08-24T09:03:31;26.00;99.90
23089;DHT22;11713;48.506;8.966;2023-08-24T09:05:57;26.20;99.90
23089;DHT22;11713;48.506;8.966;2023-08-24T09:08:25;26.30;99.90
23089;DHT22;11713;48.506;8.966;2023-08-24T09:10:51;26.40;99.90
23089;DHT22;11713;48.506;8.966;2023-08-24T09:13:17;26.70;99.90
23089;DHT22;11713;48.506;8.966;2023-08-24T09:15:43;26.60;99.90
23089;DHT22;11713;48.506;8.966;2023-08-24T09:18:09;26.50;99.90
23089;DHT22;11713;48.506;8.966;2023-08-24T09:20:35;26.70;99.90
23089;DHT22;11713;48.506;8.966;2023-08-24T09:23:02;26.70;99.90
23089;DHT22;11713;48.506;8.966;2023-08-24T09:25:27;26.90;99.90
23089;DHT22;11713;48.506;8.966;2023-08-24T09:28:01;27.10;99.90
23089;DHT22;11713;48.506;8.966;2023-08-24T09:30:30;27.20;99.90
23089;DHT22;11713;48.506;8.966;2023-08-24T09:35:33;27.70;99.90
23089;DHT22;11713;48.506;8.966;2023-08-24T09:38:00;27.60;99.90
23089;DHT22;11713;48.506;8.966;2023-08-24T09:40:26;27.80;99.90
23089;DHT22;11713;48.506;8.966;2023-08-24T09:42:52;28.10;99.90
23089;DHT22;11713;48.506;8.966;2023-08-24T09:45:18;28.30;99.90
23089;DHT22;11713;48.506;8.966;2023-08-24T09:47:51;28.50;99.90
23089;DHT22;11713;48.506;8.966;2023-08-24T09:50:18;28.60;99.90
23089;DHT22;11713;48.506;8.966;2023-08-24T09:52:44;28.80;99.90
23089;DHT22;11713;48.506;8.966;2023-08-24T09:55:13;29.00;99.90
23089;DHT22;11713;48.506;8.966;2023-08-24T09:57:42;29.00;99.90
23089;DHT22;11713;48.506;8.966;2023-08-24T10:00:09;29.30;99.90
23089;DHT22;11713;48.506;8.966;2023-08-24T10:03:01;29.40;99.90
23089;DHT22;11713;48.506;8.966;2023-08-24T10:05:31;29.60;99.90
23089;DHT22;11713;48.506;8.966;2023-08-24T10:07:58;29.50;99.90
23089;DHT22;11713;48.506;8.966;2023-08-24T10:10:25;29.50;99.90
23089;DHT22;11713;48.506;8.966;2023-08-24T10:12:56;29.60;99.90
23089;DHT22;11713;48.506;8.966;2023-08-24T10:15:23;29.40;99.90
23089;DHT22;11713;48.506;8.966;2023-08-24T10:17:50;29.40;99.90
23089;DHT22;11713;48.506;8.966;2023-08-24T10:20:21;29.50;99.90
23089;DHT22;11713;48.506;8.966;2023-08-24T10:22:47;29.50;99.90
23089;DHT22;11713;48.506;8.966;2023-08-24T10:25:16;29.50;99.90
23089;DHT22;11713;48.506;8.966;2023-08-24T10:27:43;29.50;99.90
23089;DHT22;11713;48.506;8.966;2023-08-24T10:30:12;29.70;99.90
23089;DHT22;11713;48.506;8.966;2023-08-24T10:32:42;29.80;99.90
23089;DHT22;11713;48.506;8.966;2023-08-24T10:35:08;29.70;99.90
23089;DHT22;11713;48.506;8.966;2023-08-24T10:37:34;29.70;99.90
23089;DHT22;11713;48.506;8.966;2023-08-24T10:40:00;29.90;99.90
23089;DHT22;11713;48.506;8.966;2023-08-24T10:42:26;30.20;99.90
23089;DHT22;11713;48.506;8.966;2023-08-24T10:44:52;30.40;99.90
23089;DHT22;11713;48.506;8.966;2023-08-24T10:47:20;30.70;99.90
23089;DHT22;11713;48.506;8.966;2023-08-24T10:54:49;30.60;99.90
23089;DHT22;11713;48.506;8.966;2023-08-24T10:57:23;30.80;99.90
23089;DHT22;11713;48.506;8.966;2023-08-24T11:02:50;31.00;99.90
23089;DHT22;11713;48.506;8.966;2023-08-24T11:07:57;30.90;99.90
23089;DHT22;11713;48.506;8.966;2023-08-24T11:10:25;30.90;99.90
23089;DHT22;11713;48.506;8.966;2023-08-24T11:13:07;31.00;99.90
23089;DHT22;11713;48.506;8.966;2023-08-24T11:18:23;31.10;99.90
23089;DHT22;11713;48.506;8.966;2023-08-24T11:20:54;31.10;99.90
23089;DHT22;11713;48.506;8.966;2023-08-24T11:23:21;30.90;99.90
23089;DHT22;11713;48.506;8.966;2023-08-24T11:25:49;30.90;99.90
23089;DHT22;11713;48.506;8.966;2023-08-24T11:28:20;31.10;99.90
23089;DHT22;11713;48.506;8.966;2023-08-24T11:30:47;31.30;99.90
23089;DHT22;11713;48.506;8.966;2023-08-24T11:33:14;31.60;99.90
23089;DHT22;11713;48.506;8.966;2023-08-24T11:35:44;31.80;99.90
23089;DHT22;11713;48.506;8.966;2023-08-24T11:38:11;31.70;99.90
23089;DHT22;11713;48.506;8.966;2023-08-24T11:40:37;31.80;99.90
23089;DHT22;11713;48.506;8.966;2023-08-24T11:43:04;31.90;99.90
23089;DHT22;11713;48.506;8.966;2023-08-24T11:45:32;32.10;99.90
23089;DHT22;11713;48.506;8.966;2023-08-24T11:47:59;32.00;99.90
23089;DHT22;11713;48.506;8.966;2023-08-24T11:50:28;32.00;99.90
23089;DHT22;11713;48.506;8.966;2023-08-24T11:52:54;32.20;99.90
23089;DHT22;11713;48.506;8.966;2023-08-24T11:55:23;32.20;99.90
23089;DHT22;11713;48.506;8.966;2023-08-24T11:57:50;32.20;99.90
23089;DHT22;11713;48.506;8.966;2023-08-24T12:00:19;32.50;99.90
23089;DHT22;11713;48.506;8.966;2023-08-24T12:02:46;32.60;99.90
23089;DHT22;11713;48.506;8.966;2023-08-24T12:05:25;32.70;99.90
23089;DHT22;11713;48.506;8.966;2023-08-24T12:07:53;32.70;99.90
23089;DHT22;11713;48.506;8.966;2023-08-24T12:10:20;32.70;99.90
23089;DHT22;11713;48.506;8.966;2023-08-24T12:12:46;32.60;99.90
23089;DHT22;11713;48.506;8.966;2023-08-24T12:15:19;32.70;99.90
23089;DHT22;11713;48.506;8.966;2023-08-24T12:17:48;32.80;99.90
23089;DHT22;11713;48.506;8.966;2023-08-24T12:20:22;32.80;99.90
23089;DHT22;11713;48.506;8.966;2023-08-24T12:22:55;32.90;99.90
23089;DHT22;11713;48.506;8.966;2023-08-24T12:25:24;33.10;99.90
23089;DHT22;11713;48.506;8.966;2023-08-24T12:27:52;33.20;99.90
23089;DHT22;11713;48.506;8.966;2023-08-24T12:30:19;33.30;99.90
23089;DHT22;11713;48.506;8.966;2023-08-24T12:32:49;33.20;99.90
23089;DHT22;11713;48.506;8.966;2023-08-24T12:35:32;33.30;99.90
23089;DHT22;11713;48.506;8.966;2023-08-24T12:38:02;33.50;99.90
23089;DHT22;11713;48.506;8.966;2023-08-24T12:40:29;33.70;99.90
23089;DHT22;11713;48.506;8.966;2023-08-24T12:42:55;34.10;99.90
23089;DHT22;11713;48.506;8.966;2023-08-24T12:45:21;34.40;99.90
23089;DHT22;11713;48.506;8.966;2023-08-24T12:47:47;34.50;99.90
23089;DHT22;11713;48.506;8.966;2023-08-24T12:50:12;34.80;99.90
23089;DHT22;11713;48.506;8.966;2023-08-24T12:52:38;35.00;99.90
23089;DHT22;11713;48.506;8.966;2023-08-24T12:55:04;35.10;99.90
23089;DHT22;11713;48.506;8.966;2023-08-24T12:57:30;35.20;99.90
23089;DHT22;11713;48.506;8.966;2023-08-24T12:59:56;35.10;99.90
23089;DHT22;11713;48.506;8.966;2023-08-24T13:02:22;35.00;99.90
23089;DHT22;11713;48.506;8.966;2023-08-24T13:04:47;34.70;99.90
23089;DHT22;11713;48.506;8.966;2023-08-24T13:07:13;34.60;99.90
23089;DHT22;11713;48.506;8.966;2023-08-24T13:09:40;34.80;99.90
23089;DHT22;11713;48.506;8.966;2023-08-24T13:12:05;34.80;99.90
23089;DHT22;11713;48.506;8.966;2023-08-24T13:14:31;34.80;99.90
23089;DHT22;11713;48.506;8.966;2023-08-24T13:16:57;34.70;99.90
23089;DHT22;11713;48.506;8.966;2023-08-24T13:19:23;34.50;99.90
23089;DHT22;11713;48.506;8.966;2023-08-24T13:21:48;34.40;99.90
23089;DHT22;11713;48.506;8.966;2023-08-24T13:24:14;34.50;99.90
23089;DHT22;11713;48.506;8.966;2023-08-24T13:26:40;34.60;99.90
23089;DHT22;11713;48.506;8.966;2023-08-24T13:29:06;34.50;99.90
23089;DHT22;11713;48.506;8.966;2023-08-24T13:31:31;34.50;99.90
23089;DHT22;11713;48.506;8.966;2023-08-24T13:33:57;34.40;99.90
23089;DHT22;11713;48.506;8.966;2023-08-24T13:36:23;34.50;99.90
23089;DHT22;11713;48.506;8.966;2023-08-24T13:38:49;34.60;99.90
23089;DHT22;11713;48.506;8.966;2023-08-24T13:41:15;34.70;99.90
23089;DHT22;11713;48.506;8.966;2023-08-24T13:43:41;34.90;99.90
23089;DHT22;11713;48.506;8.966;2023-08-24T13:46:07;34.80;99.90
23089;DHT22;11713;48.506;8.966;2023-08-24T13:48:33;34.80;99.90
23089;DHT22;11713;48.506;8.966;2023-08-24T13:51:00;34.60;99.90
23089;DHT22;11713;48.506;8.966;2023-08-24T13:53:25;34.80;99.90
23089;DHT22;11713;48.506;8.966;2023-08-24T13:55:51;34.80;99.90
23089;DHT22;11713;48.506;8.966;2023-08-24T13:58:17;34.80;99.90
23089;DHT22;11713;48.506;8.966;2023-08-24T14:00:43;34.90;99.90
23089;DHT22;11713;48.506;8.966;2023-08-24T14:03:10;35.20;99.90
23089;DHT22;11713;48.506;8.966;2023-08-24T14:05:39;35.60;99.90
23089;DHT22;11713;48.506;8.966;2023-08-24T14:08:05;36.10;99.90
23089;DHT22;11713;48.506;8.966;2023-08-24T14:10:31;36.40;99.90
23089;DHT22;11713;48.506;8.966;2023-08-24T14:12:58;36.60;99.90
23089;DHT22;11713;48.506;8.966;2023-08-24T14:15:23;36.70;99.90
23089;DHT22;11713;48.506;8.966;2023-08-24T14:17:49;36.90;99.90
23089;DHT22;11713;48.506;8.966;2023-08-24T14:20:15;36.80;99.90
23089;DHT22;11713;48.506;8.966;2023-08-24T14:22:41;36.80;99.90
23089;DHT22;11713;48.506;8.966;2023-08-24T14:25:07;36.50;99.90
23089;DHT22;11713;48.506;8.966;2023-08-24T14:27:33;36.30;99.90
23089;DHT22;11713;48.506;8.966;2023-08-24T14:29:58;36.10;99.90
23089;DHT22;11713;48.506;8.966;2023-08-24T14:32:24;36.00;99.90
23089;DHT22;11713;48.506;8.966;2023-08-24T14:34:50;35.80;99.90
23089;DHT22;11713;48.506;8.966;2023-08-24T14:37:16;35.60;99.90
23089;DHT22;11713;48.506;8.966;2023-08-24T14:39:41;35.40;99.90
23089;DHT22;11713;48.506;8.966;2023-08-24T14:42:07;35.20;99.90
23089;DHT22;11713;48.506;8.966;2023-08-24T14:44:33;35.10;99.90
23089;DHT22;11713;48.506;8.966;2023-08-24T14:47:00;35.10;99.90
23089;DHT22;11713;48.506;8.966;2023-08-24T14:49:26;35.00;99.90
23089;DHT22;11713;48.506;8.966;2023-08-24T14:51:52;34.90;99.90
23089;DHT22;11713;48.506;8.966;2023-08-24T14:54:18;34.90;99.90
23089;DHT22;11713;48.506;8.966;2023-08-24T14:56:43;35.00;99.90
23089;DHT22;11713;48.506;8.966;2023-08-24T14:59:09;35.00;99.90
23089;DHT22;11713;48.506;8.966;2023-08-24T15:01:36;34.90;99.90
23089;DHT22;11713;48.506;8.966;2023-08-24T15:04:01;34.80;99.90
23089;DHT22;11713;48.506;8.966;2023-08-24T15:06:27;34.50;99.90
23089;DHT22;11713;48.506;8.966;2023-08-24T15:08:53;34.30;99.90
23089;DHT22;11713;48.506;8.966;2023-08-24T15:11:19;34.10;99.90
23089;DHT22;11713;48.506;8.966;2023-08-24T15:13:46;33.90;99.90
23089;DHT22;11713;48.506;8.966;2023-08-24T15:16:12;33.50;99.90
23089;DHT22;11713;48.506;8.966;2023-08-24T15:18:38;32.90;99.90
23089;DHT22;11713;48.506;8.966;2023-08-24T15:21:04;32.10;99.90
23089;DHT22;11713;48.506;8.966;2023-08-24T15:23:31;31.70;99.90
23089;DHT22;11713;48.506;8.966;2023-08-24T15:26:00;31.40;99.90
23089;DHT22;11713;48.506;8.966;2023-08-24T15:28:34;31.20;99.90
23089;DHT22;11713;48.506;8.966;2023-08-24T15:31:01;31.00;99.90
23089;DHT22;11713;48.506;8.966;2023-08-24T15:33:27;30.70;99.90
23089;DHT22;11713;48.506;8.966;2023-08-24T15:35:53;30.50;99.90
23089;DHT22;11713;48.506;8.966;2023-08-24T15:38:18;30.20;99.90
23089;DHT22;11713;48.506;8.966;2023-08-24T15:40:52;29.80;99.90
23089;DHT22;11713;48.506;8.966;2023-08-24T15:43:19;29.60;99.90
23089;DHT22;11713;48.506;8.966;2023-08-24T15:45:45;29.50;99.90
23089;DHT22;11713;48.506;8.966;2023-08-24T15:48:10;29.40;99.90
23089;DHT22;11713;48.506;8.966;2023-08-24T15:50:36;29.30;99.90